createdAt,value
2022-08-09T00:01:37.251Z,59.40
2022-08-09T00:04:34.711Z,59.40
2022-08-09T00:07:10.487Z,59.40
2022-08-09T00:09:38.263Z,59.60
2022-08-09T00:12:05.767Z,59.60
2022-08-09T00:14:38.285Z,59.70
2022-08-09T00:17:06.036Z,59.80
2022-08-09T00:19:33.960Z,60.20
2022-08-09T00:22:04.478Z,60.00
2022-08-09T00:24:32.139Z,60.10
2022-08-09T00:27:00.358Z,60.10
2022-08-09T00:30:10.078Z,60.00
2022-08-09T00:32:25.493Z,60.00
2022-08-09T00:34:54.834Z,60.00
2022-08-09T00:37:21.914Z,60.00
2022-08-09T00:40:13.968Z,59.90
2022-08-09T00:44:13.805Z,60.30
2022-08-09T00:45:24.941Z,60.70
2022-08-09T00:47:52.760Z,60.70
2022-08-09T00:50:23.295Z,61.20
2022-08-09T00:52:50.621Z,61.30
2022-08-09T00:56:03.767Z,61.60
2022-08-09T00:58:06.173Z,61.80
2022-08-09T01:00:40.576Z,61.70
2022-08-09T01:03:20.420Z,62.00
2022-08-09T01:06:18.138Z,62.10
2022-08-09T01:09:11.769Z,62.30
2022-08-09T01:11:56.180Z,62.10
2022-08-09T01:14:33.436Z,61.90
2022-08-09T01:17:17.889Z,62.00
2022-08-09T01:20:02.291Z,62.00
2022-08-09T01:23:05.588Z,61.90
2022-08-09T01:26:11.232Z,62.80
2022-08-09T01:28:47.442Z,62.00
2022-08-09T01:32:27.971Z,62.20
2022-08-09T01:34:10.799Z,62.90
2022-08-09T01:36:41.140Z,62.50
2022-08-09T01:39:08.857Z,62.50
2022-08-09T01:42:01.276Z,62.50
2022-08-09T01:44:29.886Z,62.50
2022-08-09T01:47:00.818Z,62.70
2022-08-09T01:49:38.909Z,62.80
2022-08-09T01:52:14.518Z,62.80
2022-08-09T01:54:48.868Z,62.80
2022-08-09T01:57:21.668Z,62.90
2022-08-09T01:59:52.857Z,63.30
2022-08-09T02:02:30.909Z,63.30
2022-08-09T02:05:05.501Z,63.40
2022-08-09T02:08:35.281Z,63.60
2022-08-09T02:10:29.765Z,63.70
2022-08-09T02:13:01.017Z,63.80
2022-08-09T02:15:49.668Z,63.90
2022-08-09T02:18:19.563Z,63.90
2022-08-09T02:20:55.221Z,64.30
2022-08-09T02:23:39.726Z,64.30
2022-08-09T02:26:25.390Z,64.30
2022-08-09T02:29:00.265Z,64.30
2022-08-09T02:31:39.264Z,64.40
2022-08-09T02:34:38.744Z,64.50
2022-08-09T02:37:03.298Z,64.90
2022-08-09T02:39:41.763Z,65.20
2022-08-09T02:42:16.828Z,65.40
2022-08-09T02:44:52.764Z,65.40
2022-08-09T02:47:22.326Z,65.50
2022-08-09T02:50:11.674Z,65.60
2022-08-09T02:52:57.767Z,65.70
2022-08-09T02:55:39.415Z,65.90
2022-08-09T02:58:32.312Z,66.30
2022-08-09T03:01:06.108Z,66.50
2022-08-09T03:03:48.057Z,66.70
2022-08-09T03:06:25.033Z,66.60
2022-08-09T03:08:55.836Z,66.60
2022-08-09T03:12:04.312Z,66.50
2022-08-09T03:14:12.756Z,66.40
2022-08-09T03:16:44.756Z,66.40
2022-08-09T03:19:57.651Z,66.40
2022-08-09T03:22:12.541Z,66.50
2022-08-09T03:24:52.414Z,66.60
2022-08-09T03:27:21.532Z,66.80
2022-08-09T03:30:01.094Z,66.90
2022-08-09T03:32:31.261Z,67.20
2022-08-09T03:35:00.617Z,67.30
2022-08-09T03:37:54.286Z,67.50
2022-08-09T03:40:18.183Z,67.60
2022-08-09T03:42:46.612Z,67.70
2022-08-09T03:45:13.817Z,67.80
2022-08-09T03:47:46.391Z,67.90
2022-08-09T03:50:14.266Z,68.00
2022-08-09T03:52:46.145Z,68.00
2022-08-09T03:55:14.601Z,68.40
2022-08-09T03:57:57.431Z,68.40
2022-08-09T04:00:31.044Z,68.40
2022-08-09T04:02:59.588Z,68.50
2022-08-09T04:05:28.121Z,68.40
2022-08-09T04:07:57.215Z,68.60
2022-08-09T04:10:29.257Z,68.80
2022-08-09T04:13:03.986Z,68.70
2022-08-09T04:16:18.756Z,68.80
2022-08-09T04:18:21.648Z,68.90
2022-08-09T04:20:49.922Z,68.90
2022-08-09T04:23:24.431Z,68.80
2022-08-09T04:25:52.976Z,68.80
2022-08-09T04:28:30.819Z,68.90
2022-08-09T04:31:00.501Z,68.90
2022-08-09T04:33:53.176Z,68.90
2022-08-09T04:36:24.560Z,68.90
2022-08-09T04:38:52.330Z,68.90
2022-08-09T04:41:19.494Z,68.90
2022-08-09T04:44:05.066Z,69.00
2022-08-09T04:46:57.636Z,69.00
2022-08-09T04:49:30.134Z,69.20
2022-08-09T04:52:09.694Z,69.00
2022-08-09T04:54:36.775Z,69.10
2022-08-09T04:57:04.468Z,69.10
2022-08-09T04:59:31.626Z,69.50
2022-08-09T05:01:58.848Z,69.80
2022-08-09T05:04:31.142Z,70.10
2022-08-09T05:06:58.629Z,70.30
2022-08-09T05:09:25.526Z,70.20
2022-08-09T05:12:12.671Z,70.20
2022-08-09T05:14:41.072Z,70.40
2022-08-09T05:18:39.244Z,70.60
2022-08-09T05:19:56.992Z,70.80
2022-08-09T05:22:35.005Z,71.00
2022-08-09T05:25:06.869Z,71.10
2022-08-09T05:27:45.586Z,71.20
2022-08-09T05:30:17.590Z,71.20
2022-08-09T05:32:51.001Z,70.90
2022-08-09T05:35:23.857Z,70.60
2022-08-09T05:37:51.417Z,70.40
2022-08-09T05:40:18.675Z,70.20
2022-08-09T05:42:49.959Z,70.10
2022-08-09T05:45:17.576Z,69.90
2022-08-09T05:47:50.848Z,69.70
2022-08-09T05:50:36.157Z,69.50
2022-08-09T05:53:21.834Z,69.50
2022-08-09T05:55:58.857Z,69.50
2022-08-09T05:58:25.639Z,70.50
2022-08-09T06:00:54.197Z,69.60
2022-08-09T06:03:21.382Z,69.40
2022-08-09T06:06:04.413Z,68.90
2022-08-09T06:08:33.925Z,68.80
2022-08-09T06:11:00.998Z,68.30
2022-08-09T06:13:34.070Z,68.10
2022-08-09T06:16:04.905Z,67.70
2022-08-09T06:18:32.820Z,67.30
2022-08-09T06:21:01.353Z,66.90
2022-08-09T06:23:57.207Z,67.00
2022-08-09T06:26:22.790Z,67.30
2022-08-09T06:29:00.638Z,67.40
2022-08-09T06:31:39.709Z,67.20
2022-08-09T06:34:22.883Z,67.30
2022-08-09T06:36:57.427Z,67.30
2022-08-09T06:39:38.811Z,67.20
2022-08-09T06:42:19.874Z,66.90
2022-08-09T06:44:51.846Z,67.00
2022-08-09T06:47:22.256Z,67.10
2022-08-09T06:50:13.861Z,67.00
2022-08-09T06:52:47.315Z,66.80
2022-08-09T06:55:17.037Z,66.50
2022-08-09T06:58:01.907Z,66.30
2022-08-09T07:00:48.976Z,66.20
2022-08-09T07:03:17.900Z,66.50
2022-08-09T07:05:58.465Z,66.60
2022-08-09T07:08:31.407Z,66.60
2022-08-09T07:10:58.320Z,66.50
2022-08-09T07:13:28.066Z,66.70
2022-08-09T07:16:43.269Z,66.60
2022-08-09T07:18:43.882Z,66.80
2022-08-09T07:21:14.466Z,67.00
2022-08-09T07:23:56.415Z,67.00
2022-08-09T07:26:26.313Z,67.10
2022-08-09T07:29:07.981Z,67.00
2022-08-09T07:31:45.162Z,66.80
2022-08-09T07:34:20.691Z,66.70
2022-08-09T07:36:52.845Z,66.50
2022-08-09T07:39:40.556Z,66.50
2022-08-09T07:42:08.028Z,66.40
2022-08-09T07:44:51.648Z,66.30
2022-08-09T07:47:21.636Z,66.00
2022-08-09T07:50:05.533Z,65.90
2022-08-09T07:52:36.011Z,65.80
2022-08-09T07:55:08.781Z,65.80
2022-08-09T07:57:36.905Z,65.60
2022-08-09T08:00:08.938Z,65.50
2022-08-09T08:02:42.990Z,65.30
2022-08-09T08:05:17.900Z,65.20
2022-08-09T08:09:01.224Z,65.20
2022-08-09T08:10:36.048Z,65.10
2022-08-09T08:13:06.840Z,65.10
2022-08-09T08:15:37.803Z,65.00
2022-08-09T08:18:06.365Z,64.70
2022-08-09T08:20:33.679Z,64.50
2022-08-09T08:23:06.602Z,64.20
2022-08-09T08:25:45.978Z,63.70
2022-08-09T08:28:17.971Z,63.10
2022-08-09T08:30:55.295Z,62.70
2022-08-09T08:33:24.177Z,62.70
2022-08-09T08:35:58.897Z,62.60
2022-08-09T08:38:28.029Z,62.40
2022-08-09T08:40:56.460Z,62.20
2022-08-09T08:43:24.487Z,61.90
2022-08-09T08:46:24.946Z,61.70
2022-08-09T08:48:54.136Z,61.50
2022-08-09T08:51:22.904Z,61.00
2022-08-09T08:54:03.926Z,60.90
2022-08-09T08:56:38.457Z,60.90
2022-08-09T08:59:19.973Z,60.50
2022-08-09T09:01:53.162Z,60.70
2022-08-09T09:04:31.926Z,60.70
2022-08-09T09:07:11.057Z,59.80
2022-08-09T09:10:02.881Z,59.80
2022-08-09T09:12:35.535Z,59.40
2022-08-09T09:15:05.835Z,59.40
2022-08-09T09:17:48.248Z,59.60
2022-08-09T09:20:16.781Z,59.70
2022-08-09T09:23:01.847Z,59.30
2022-08-09T09:26:04.330Z,59.30
2022-08-09T09:28:39.055Z,59.30
2022-08-09T09:32:05.965Z,58.60
2022-08-09T09:34:14.514Z,58.60
2022-08-09T09:36:52.900Z,58.40
2022-08-09T09:39:23.375Z,58.00
2022-08-09T09:41:51.363Z,57.70
2022-08-09T09:44:27.513Z,57.50
2022-08-09T09:47:07.251Z,57.40
2022-08-09T09:50:07.207Z,57.50
2022-08-09T09:52:36.263Z,57.40
2022-08-09T09:55:28.778Z,56.60
2022-08-09T09:58:00.739Z,56.70
2022-08-09T10:00:29.122Z,56.50
2022-08-09T10:02:56.041Z,56.80
2022-08-09T10:05:26.961Z,56.60
2022-08-09T10:08:27.585Z,56.10
2022-08-09T10:10:55.874Z,55.80
2022-08-09T10:13:23.241Z,55.00
2022-08-09T10:16:58.004Z,54.80
2022-08-09T10:19:08.605Z,54.00
2022-08-09T10:21:46.100Z,53.60
2022-08-09T10:24:21.140Z,53.60
2022-08-09T10:26:59.179Z,53.60
2022-08-09T10:30:26.449Z,53.70
2022-08-09T10:32:38.697Z,53.80
2022-08-09T10:35:02.716Z,53.40
2022-08-09T10:37:29.954Z,52.80
2022-08-09T10:40:08.677Z,52.30
2022-08-09T10:42:39.205Z,52.70
2022-08-09T10:45:12.224Z,52.60
2022-08-09T10:48:30.430Z,52.60
2022-08-09T10:51:17.567Z,52.50
2022-08-09T10:54:12.498Z,52.50
2022-08-09T10:56:43.638Z,51.80
2022-08-09T10:59:30.704Z,51.80
2022-08-09T11:03:13.913Z,51.80
2022-08-09T11:05:25.480Z,51.60
2022-08-09T11:07:59.345Z,51.20
2022-08-09T11:10:47.144Z,50.60
2022-08-09T11:13:50.995Z,50.90
2022-08-09T11:16:34.816Z,50.40
2022-08-09T11:19:07.970Z,50.60
2022-08-09T11:21:57.295Z,50.60
2022-08-09T11:25:16.292Z,50.60
2022-08-09T11:28:04.791Z,50.60
2022-08-09T11:30:37.998Z,50.20
2022-08-09T11:33:35.181Z,49.90
2022-08-09T11:36:02.981Z,49.70
2022-08-09T11:38:34.074Z,50.00
2022-08-09T11:41:38.279Z,49.70
2022-08-09T11:44:08.013Z,49.60
2022-08-09T11:46:55.075Z,49.50
2022-08-09T11:50:55.557Z,49.70
2022-08-09T11:53:21.497Z,50.10
2022-08-09T11:55:52.369Z,50.10
2022-08-09T11:58:30.490Z,50.20
2022-08-09T12:01:37.546Z,50.00
2022-08-09T12:04:20.748Z,50.00
2022-08-09T12:06:56.282Z,49.40
2022-08-09T12:09:33.721Z,49.10
2022-08-09T12:12:13.015Z,49.40
2022-08-09T12:15:07.172Z,49.70
2022-08-09T12:17:45.684Z,49.30
2022-08-09T12:20:26.461Z,48.60
2022-08-09T12:23:04.711Z,48.00
2022-08-09T12:25:37.298Z,47.80
2022-08-09T12:29:14.885Z,47.30
2022-08-09T12:31:31.199Z,47.00
2022-08-09T12:34:15.401Z,47.60
2022-08-09T12:36:58.940Z,47.70
2022-08-09T12:39:41.037Z,47.60
2022-08-09T12:42:10.097Z,47.70
2022-08-09T12:44:54.460Z,47.20
2022-08-09T12:47:23.006Z,47.00
2022-08-09T12:50:11.186Z,47.00
2022-08-09T12:53:09.018Z,47.20
2022-08-09T12:56:15.740Z,47.30
2022-08-09T12:58:24.459Z,47.00
2022-08-09T13:00:55.798Z,46.50
2022-08-09T13:03:52.614Z,46.80
2022-08-09T13:06:34.691Z,46.80
2022-08-09T13:09:06.640Z,46.70
2022-08-09T13:11:42.578Z,46.90
2022-08-09T13:14:41.192Z,47.00
2022-08-09T13:17:44.078Z,46.90
2022-08-09T13:20:16.047Z,47.00
2022-08-09T13:24:06.200Z,47.20
2022-08-09T13:25:53.203Z,46.90
2022-08-09T13:28:34.475Z,46.60
2022-08-09T13:32:13.484Z,46.60
2022-08-09T13:33:56.918Z,46.00
2022-08-09T13:36:41.384Z,46.10
2022-08-09T13:41:45.905Z,46.10
2022-08-09T13:42:12.674Z,45.90
2022-08-09T13:44:59.258Z,45.50
2022-08-09T13:47:48.943Z,45.10
2022-08-09T13:50:30.388Z,45.10
2022-08-09T13:52:58.565Z,45.10
2022-08-09T13:55:33.207Z,45.30
2022-08-09T13:58:00.866Z,45.40
2022-08-09T14:00:46.818Z,45.00
2022-08-09T14:04:01.106Z,44.80
2022-08-09T14:06:26.427Z,44.60
2022-08-09T14:08:58.860Z,44.80
2022-08-09T14:11:26.616Z,45.10
2022-08-09T14:14:23.421Z,45.10
2022-08-09T14:16:44.169Z,45.20
2022-08-09T14:19:11.088Z,45.20
2022-08-09T14:21:44.280Z,45.30
2022-08-09T14:24:22.118Z,45.30
2022-08-09T14:27:02.400Z,44.90
2022-08-09T14:30:35.399Z,45.00
2022-08-09T14:32:19.994Z,44.50
2022-08-09T14:35:03.307Z,44.30
2022-08-09T14:37:31.216Z,44.30
2022-08-09T14:40:28.226Z,44.20
2022-08-09T14:43:06.834Z,44.20
2022-08-09T14:46:54.266Z,43.90
2022-08-09T14:48:20.763Z,43.80
2022-08-09T14:50:53.663Z,43.60
2022-08-09T14:53:21.801Z,43.40
2022-08-09T14:55:52.744Z,43.40
2022-08-09T14:58:21.505Z,43.60
2022-08-09T15:00:51.069Z,43.60
2022-08-09T15:03:20.243Z,43.70
2022-08-09T15:05:51.415Z,43.60
2022-08-09T15:08:23.823Z,43.40
2022-08-09T15:11:01.304Z,43.20
2022-08-09T15:13:48.395Z,43.30
2022-08-09T15:16:16.628Z,43.40
2022-08-09T15:18:44.270Z,43.60
2022-08-09T15:21:55.463Z,43.40
2022-08-09T15:24:12.867Z,43.10
2022-08-09T15:26:45.466Z,43.00
2022-08-09T15:30:55.875Z,42.70
2022-08-09T15:32:00.777Z,42.80
2022-08-09T15:34:34.662Z,42.80
2022-08-09T15:37:04.141Z,42.90
2022-08-09T15:39:34.600Z,42.60
2022-08-09T15:42:02.326Z,42.30
2022-08-09T15:44:29.359Z,42.40
2022-08-09T15:46:59.628Z,42.50
2022-08-09T15:49:28.559Z,42.60
2022-08-09T15:52:05.127Z,42.70
2022-08-09T15:54:51.464Z,42.70
2022-08-09T15:57:33.884Z,42.80
2022-08-09T16:00:14.790Z,42.60
2022-08-09T16:02:53.773Z,42.40
2022-08-09T16:05:22.275Z,42.40
2022-08-09T16:07:50.803Z,42.40
2022-08-09T16:10:55.533Z,42.30
2022-08-09T16:13:18.482Z,42.30
2022-08-09T16:16:12.274Z,42.40
2022-08-09T16:18:35.424Z,42.40
2022-08-09T16:21:02.428Z,42.20
2022-08-09T16:23:29.294Z,42.30
2022-08-09T16:26:02.827Z,42.20
2022-08-09T16:28:29.887Z,42.10
2022-08-09T16:30:59.159Z,41.90
2022-08-09T16:33:27.048Z,41.50
2022-08-09T16:35:58.428Z,41.10
2022-08-09T16:38:27.928Z,41.00
2022-08-09T16:40:56.866Z,41.00
2022-08-09T16:43:24.751Z,40.90
2022-08-09T16:45:54.156Z,40.60
2022-08-09T16:48:41.798Z,40.20
2022-08-09T16:51:13.674Z,39.90
2022-08-09T16:54:16.049Z,39.10
2022-08-09T16:56:31.039Z,38.60
2022-08-09T16:58:59.007Z,37.80
2022-08-09T17:01:26.226Z,37.50
2022-08-09T17:03:54.368Z,37.20
2022-08-09T17:06:32.143Z,37.50
2022-08-09T17:09:16.161Z,37.40
2022-08-09T17:11:49.133Z,37.30
2022-08-09T17:14:25.606Z,36.80
2022-08-09T17:17:02.951Z,36.80
2022-08-09T17:19:46.511Z,36.70
2022-08-09T17:22:14.046Z,36.60
2022-08-09T17:24:47.563Z,36.60
2022-08-09T17:27:21.581Z,36.60
2022-08-09T17:29:48.455Z,36.30
2022-08-09T17:32:26.702Z,36.40
2022-08-09T17:35:11.637Z,36.40
2022-08-09T17:38:13.026Z,36.30
2022-08-09T17:40:33.399Z,36.00
2022-08-09T17:43:33.485Z,36.10
2022-08-09T17:46:04.430Z,36.20
2022-08-09T17:48:39.776Z,36.00
2022-08-09T17:51:17.519Z,36.40
2022-08-09T17:53:55.525Z,36.70
2022-08-09T17:56:29.289Z,37.30
2022-08-09T17:59:08.873Z,37.80
2022-08-09T18:01:58.116Z,38.20
2022-08-09T18:04:27.249Z,38.70
2022-08-09T18:06:55.773Z,39.10
2022-08-09T18:09:39.987Z,39.30
2022-08-09T18:12:17.462Z,39.70
2022-08-09T18:14:55.217Z,40.00
2022-08-09T18:18:01.313Z,40.20
2022-08-09T18:20:54.132Z,40.20
2022-08-09T18:23:04.818Z,40.30
2022-08-09T18:25:52.827Z,40.40
2022-08-09T18:30:41.059Z,40.50
2022-08-09T18:31:10.403Z,40.50
2022-08-09T18:33:37.321Z,40.60
2022-08-09T18:36:08.750Z,40.70
2022-08-09T18:38:41.570Z,40.80
2022-08-09T18:41:08.490Z,40.90
2022-08-09T18:43:35.776Z,41.10
2022-08-09T18:46:47.067Z,41.20
2022-08-09T18:48:51.211Z,41.30
2022-08-09T18:51:18.050Z,41.50
2022-08-09T18:54:07.522Z,41.60
2022-08-09T18:56:43.346Z,41.70
2022-08-09T18:59:10.206Z,42.00
2022-08-09T19:01:46.033Z,42.00
2022-08-09T19:04:13.720Z,42.10
2022-08-09T19:06:50.360Z,42.20
2022-08-09T19:09:34.016Z,42.30
2022-08-09T19:12:07.599Z,42.60
2022-08-09T19:14:34.954Z,42.70
2022-08-09T19:17:05.335Z,42.70
2022-08-09T19:19:41.279Z,42.80
2022-08-09T19:22:08.313Z,42.90
2022-08-09T19:25:09.156Z,43.00
2022-08-09T19:27:25.857Z,43.10
2022-08-09T19:30:21.596Z,43.30
2022-08-09T19:32:43.030Z,43.40
2022-08-09T19:35:10.078Z,43.40
2022-08-09T19:37:53.989Z,43.50
2022-08-09T19:40:22.080Z,43.50
2022-08-09T19:42:49.582Z,43.60
2022-08-09T19:45:17.824Z,43.70
2022-08-09T19:47:45.734Z,43.90
2022-08-09T19:50:49.376Z,44.00
2022-08-09T19:53:02.349Z,44.00
2022-08-09T19:56:02.879Z,44.20
2022-08-09T19:58:30.155Z,44.40
2022-08-09T20:00:58.326Z,44.40
2022-08-09T20:04:18.113Z,44.50
2022-08-09T20:06:23.853Z,44.60
2022-08-09T20:08:57.593Z,44.50
2022-08-09T20:11:27.195Z,44.70
2022-08-09T20:14:13.096Z,44.80
2022-08-09T20:16:50.256Z,44.90
2022-08-09T20:19:48.669Z,44.90
2022-08-09T20:22:10.191Z,45.00
2022-08-09T20:24:41.890Z,45.10
2022-08-09T20:27:08.977Z,45.20
2022-08-09T20:29:39.450Z,45.20
2022-08-09T20:32:30.442Z,45.30
2022-08-09T20:34:59.657Z,45.40
2022-08-09T20:38:18.801Z,45.50
2022-08-09T20:40:26.544Z,45.70
2022-08-09T20:43:12.249Z,45.90
2022-08-09T20:45:57.293Z,46.30
2022-08-09T20:48:31.387Z,46.50
2022-08-09T20:50:59.766Z,46.60
2022-08-09T20:53:36.867Z,46.80
2022-08-09T20:56:20.919Z,46.90
2022-08-09T20:58:54.637Z,47.60
2022-08-09T21:01:34.842Z,47.10
2022-08-09T21:05:49.360Z,47.30
2022-08-09T21:07:12.079Z,47.70
2022-08-09T21:09:45.405Z,47.90
2022-08-09T21:12:23.390Z,48.10
2022-08-09T21:14:50.347Z,48.20
2022-08-09T21:18:22.981Z,48.40
2022-08-09T21:20:22.801Z,48.80
2022-08-09T21:22:54.629Z,49.00
2022-08-09T21:25:44.399Z,49.30
2022-08-09T21:28:34.912Z,49.60
2022-08-09T21:31:17.668Z,49.90
2022-08-09T21:33:53.251Z,50.10
2022-08-09T21:36:27.880Z,50.30
2022-08-09T21:38:57.338Z,50.30
2022-08-09T21:42:04.826Z,50.40
2022-08-09T21:44:33.444Z,50.70
2022-08-09T21:47:08.872Z,50.90
2022-08-09T21:49:42.960Z,51.20
2022-08-09T21:52:14.821Z,51.40
2022-08-09T21:55:04.821Z,51.60
2022-08-09T21:57:38.764Z,51.50
2022-08-09T22:00:33.477Z,51.60
2022-08-09T22:03:04.666Z,51.90
2022-08-09T22:05:37.668Z,52.20
2022-08-09T22:08:13.850Z,52.10
2022-08-09T22:11:50.563Z,52.20
2022-08-09T22:13:34.816Z,52.40
2022-08-09T22:16:04.700Z,52.50
2022-08-09T22:18:35.327Z,52.60
2022-08-09T22:21:09.341Z,52.60
2022-08-09T22:23:59.084Z,52.60
2022-08-09T22:26:34.878Z,52.60
2022-08-09T22:29:09.907Z,52.60
2022-08-09T22:31:50.500Z,52.60
2022-08-09T22:34:27.941Z,52.70
2022-08-09T22:36:59.519Z,52.70
2022-08-09T22:39:55.321Z,52.90
2022-08-09T22:42:21.886Z,52.80
2022-08-09T22:48:06.018Z,53.00
2022-08-09T22:48:13.132Z,53.30
2022-08-09T22:50:30.982Z,53.80
2022-08-09T22:53:03.983Z,53.80
2022-08-09T22:56:06.395Z,54.10
2022-08-09T22:58:31.010Z,54.20
2022-08-09T23:01:02.131Z,54.30
2022-08-09T23:04:02.349Z,54.40
2022-08-09T23:06:35.118Z,54.50
2022-08-09T23:09:06.026Z,54.40
2022-08-09T23:11:33.259Z,54.40
2022-08-09T23:14:00.122Z,54.30
2022-08-09T23:16:26.924Z,54.20
2022-08-09T23:18:53.722Z,54.10
2022-08-09T23:21:25.314Z,54.10
2022-08-09T23:24:01.537Z,54.10
2022-08-09T23:26:41.283Z,54.10
2022-08-09T23:29:11.757Z,54.30
2022-08-09T23:31:39.116Z,55.00
2022-08-09T23:34:06.319Z,54.40
2022-08-09T23:36:34.653Z,54.40
2022-08-09T23:39:04.045Z,54.60
2022-08-09T23:41:31.248Z,54.70
2022-08-09T23:43:59.303Z,55.00
2022-08-09T23:46:28.326Z,55.10
2022-08-09T23:48:59.411Z,55.60
2022-08-09T23:51:27.779Z,55.80
2022-08-09T23:54:01.993Z,55.90
2022-08-09T23:56:52.860Z,55.90
2022-08-09T23:59:21.189Z,55.90
